createdAt,value
2022-11-08T00:00:29.595Z,100.00
2022-11-08T00:03:33.084Z,100.00
2022-11-08T00:06:54.682Z,100.00
2022-11-08T00:10:16.319Z,100.00
2022-11-08T00:13:37.753Z,100.00
2022-11-08T00:16:40.638Z,100.00
2022-11-08T00:19:43.805Z,100.00
2022-11-08T00:22:46.741Z,100.00
2022-11-08T00:25:55.913Z,100.00
2022-11-08T00:28:59.044Z,100.00
2022-11-08T00:32:05.601Z,100.00
2022-11-08T00:35:09.228Z,100.00
2022-11-08T00:38:11.783Z,100.00
2022-11-08T00:41:15.010Z,100.00
2022-11-08T00:44:17.626Z,100.00
2022-11-08T00:47:20.512Z,100.00
2022-11-08T00:50:23.039Z,100.00
2022-11-08T00:53:25.815Z,100.00
2022-11-08T00:56:28.322Z,100.00
2022-11-08T00:59:31.174Z,100.00
2022-11-08T01:02:33.781Z,100.00
2022-11-08T01:05:38.298Z,100.00
2022-11-08T01:08:41.784Z,100.00
2022-11-08T01:11:46.694Z,100.00
2022-11-08T01:14:49.273Z,100.00
2022-11-08T01:17:52.623Z,100.00
2022-11-08T01:20:55.281Z,100.00
2022-11-08T01:23:58.202Z,100.00
2022-11-08T01:27:00.676Z,100.00
2022-11-08T01:30:04.295Z,100.00
2022-11-08T01:33:07.366Z,100.00
2022-11-08T01:36:13.862Z,100.00
2022-11-08T01:39:16.469Z,100.00
2022-11-08T01:42:30.353Z,100.00
2022-11-08T01:46:19.285Z,100.00
2022-11-08T01:49:28.414Z,100.00
2022-11-08T01:52:37.555Z,100.00
2022-11-08T01:55:40.970Z,100.00
2022-11-08T01:58:46.918Z,100.00
2022-11-08T02:01:50.159Z,100.00
2022-11-08T02:04:55.773Z,100.00
2022-11-08T02:08:04.292Z,100.00
2022-11-08T02:11:09.763Z,100.00
2022-11-08T02:14:12.571Z,100.00
2022-11-08T02:17:15.456Z,100.00
2022-11-08T02:20:17.935Z,100.00
2022-11-08T02:23:26.896Z,100.00
2022-11-08T02:26:32.384Z,100.00
2022-11-08T02:29:36.095Z,100.00
2022-11-08T02:32:40.335Z,100.00
2022-11-08T02:35:46.474Z,100.00
2022-11-08T02:38:54.689Z,100.00
2022-11-08T02:41:59.021Z,100.00
2022-11-08T02:45:01.942Z,100.00
2022-11-08T02:48:05.654Z,100.00
2022-11-08T02:51:08.357Z,100.00
2022-11-08T02:54:14.287Z,100.00
2022-11-08T02:57:19.233Z,100.00
2022-11-08T03:00:22.643Z,100.00
2022-11-08T03:03:25.244Z,100.00
2022-11-08T03:06:28.165Z,100.00
2022-11-08T03:09:31.101Z,100.00
2022-11-08T03:12:33.980Z,100.00
2022-11-08T03:15:36.493Z,100.00
2022-11-08T03:18:40.428Z,100.00
2022-11-08T03:21:42.999Z,100.00
2022-11-08T03:24:45.853Z,100.00
2022-11-08T03:27:51.311Z,100.00
2022-11-08T03:30:54.566Z,100.00
2022-11-08T03:33:57.516Z,100.00
2022-11-08T03:37:00.352Z,100.00
2022-11-08T03:40:04.119Z,100.00
2022-11-08T03:43:07.048Z,100.00
2022-11-08T03:46:09.894Z,100.00
2022-11-08T03:49:15.219Z,100.00
2022-11-08T03:52:18.014Z,100.00
2022-11-08T03:55:24.455Z,100.00
2022-11-08T03:58:27.236Z,100.00
2022-11-08T04:01:30.224Z,100.00
2022-11-08T04:04:33.154Z,100.00
2022-11-08T04:07:36.523Z,100.00
2022-11-08T04:10:39.525Z,100.00
2022-11-08T04:14:00.883Z,100.00
2022-11-08T04:17:03.773Z,100.00
2022-11-08T04:20:27.235Z,100.00
2022-11-08T04:23:31.305Z,100.00
2022-11-08T04:26:33.759Z,100.00
2022-11-08T04:29:36.687Z,100.00
2022-11-08T04:32:39.225Z,100.00
2022-11-08T04:35:42.464Z,100.00
2022-11-08T04:38:51.570Z,100.00
2022-11-08T04:41:59.163Z,100.00
2022-11-08T04:45:04.652Z,100.00
2022-11-08T04:48:07.834Z,100.00
2022-11-08T04:51:13.242Z,100.00
2022-11-08T04:54:16.340Z,100.00
2022-11-08T04:57:18.913Z,100.00
2022-11-08T05:00:21.859Z,100.00
2022-11-08T05:03:24.385Z,100.00
2022-11-08T05:06:30.577Z,100.00
2022-11-08T05:09:32.997Z,100.00
2022-11-08T05:12:35.918Z,100.00
2022-11-08T05:15:38.450Z,100.00
2022-11-08T05:18:42.236Z,100.00
2022-11-08T05:22:03.630Z,100.00
2022-11-08T05:25:06.903Z,100.00
2022-11-08T05:28:09.627Z,100.00
2022-11-08T05:31:12.988Z,100.00
2022-11-08T05:34:15.566Z,100.00
2022-11-08T05:37:18.526Z,100.00
2022-11-08T05:40:21.066Z,100.00
2022-11-08T05:43:24.266Z,100.00
2022-11-08T05:46:26.853Z,100.00
2022-11-08T05:49:29.747Z,100.00
2022-11-08T05:52:32.609Z,100.00
2022-11-08T05:55:35.604Z,100.00
2022-11-08T05:58:38.096Z,100.00
2022-11-08T06:01:41.027Z,100.00
2022-11-08T06:04:44.145Z,100.00
2022-11-08T06:07:46.790Z,100.00
2022-11-08T06:10:49.707Z,100.00
2022-11-08T06:13:53.728Z,100.00
2022-11-08T06:16:56.646Z,100.00
2022-11-08T06:19:59.260Z,100.00
2022-11-08T06:23:02.541Z,100.00
2022-11-08T06:26:05.824Z,100.00
2022-11-08T06:29:08.731Z,100.00
2022-11-08T06:32:11.479Z,100.00
2022-11-08T06:35:14.322Z,100.00
2022-11-08T06:38:17.393Z,100.00
2022-11-08T06:41:20.663Z,100.00
2022-11-08T06:44:23.716Z,100.00
2022-11-08T06:47:26.591Z,100.00
2022-11-08T06:50:31.615Z,100.00
2022-11-08T06:53:34.577Z,100.00
2022-11-08T06:56:37.342Z,100.00
2022-11-08T06:59:40.422Z,100.00
2022-11-08T07:02:46.571Z,100.00
2022-11-08T07:05:49.538Z,100.00
2022-11-08T07:08:52.349Z,100.00
2022-11-08T07:11:56.235Z,100.00
2022-11-08T07:14:58.812Z,100.00
2022-11-08T07:18:08.944Z,100.00
2022-11-08T07:21:12.069Z,100.00
2022-11-08T07:24:14.965Z,100.00
2022-11-08T07:27:17.518Z,100.00
2022-11-08T07:30:20.500Z,100.00
2022-11-08T07:33:23.534Z,100.00
2022-11-08T07:36:26.619Z,100.00
2022-11-08T07:39:29.143Z,100.00
2022-11-08T07:42:56.779Z,100.00
2022-11-08T07:45:56.631Z,100.00
2022-11-08T07:48:59.568Z,100.00
2022-11-08T07:52:02.431Z,100.00
2022-11-08T07:55:05.847Z,100.00
2022-11-08T07:58:10.874Z,100.00
2022-11-08T08:01:13.873Z,100.00
2022-11-08T08:04:16.948Z,100.00
2022-11-08T08:07:19.551Z,100.00
2022-11-08T08:10:22.342Z,100.00
2022-11-08T08:13:24.965Z,100.00
2022-11-08T08:16:27.945Z,100.00
2022-11-08T08:19:30.556Z,100.00
2022-11-08T08:22:33.506Z,100.00
2022-11-08T08:25:36.200Z,100.00
2022-11-08T08:28:39.988Z,100.00
2022-11-08T08:31:42.522Z,100.00
2022-11-08T08:34:45.482Z,100.00
2022-11-08T08:37:48.068Z,100.00
2022-11-08T08:40:51.705Z,100.00
2022-11-08T08:43:55.222Z,100.00
2022-11-08T08:46:58.914Z,100.00
2022-11-08T08:50:01.830Z,100.00
2022-11-08T08:53:06.275Z,100.00
2022-11-08T08:56:09.185Z,100.00
2022-11-08T09:02:38.432Z,100.00
2022-11-08T09:05:46.801Z,100.00
2022-11-08T09:08:49.788Z,100.00
2022-11-08T09:11:53.243Z,100.00
2022-11-08T09:14:56.472Z,100.00
2022-11-08T09:18:00.961Z,100.00
2022-11-08T09:21:04.442Z,100.00
2022-11-08T09:24:07.763Z,100.00
2022-11-08T09:27:10.377Z,100.00
2022-11-08T09:30:13.730Z,100.00
2022-11-08T09:33:16.638Z,100.00
2022-11-08T09:36:19.877Z,100.00
2022-11-08T09:39:22.330Z,100.00
2022-11-08T09:42:28.130Z,100.00
2022-11-08T09:45:46.420Z,100.00
2022-11-08T09:48:51.152Z,100.00
2022-11-08T09:51:54.255Z,100.00
2022-11-08T09:55:23.516Z,100.00
2022-11-08T09:58:38.035Z,100.00
2022-11-08T10:01:41.214Z,100.00
2022-11-08T10:05:00.267Z,100.00
2022-11-08T10:08:05.814Z,100.00
2022-11-08T10:11:33.600Z,100.00
2022-11-08T10:15:02.661Z,100.00
2022-11-08T10:18:23.755Z,100.00
2022-11-08T10:21:58.196Z,100.00
2022-11-08T10:25:03.015Z,100.00
2022-11-08T10:28:07.480Z,92.98
2022-11-08T10:31:13.190Z,93.43
2022-11-08T10:34:20.567Z,92.45
2022-11-08T10:37:25.319Z,94.45
2022-11-08T10:40:42.961Z,96.52
2022-11-08T10:43:52.160Z,94.27
2022-11-08T10:46:58.960Z,93.30
2022-11-08T10:50:14.058Z,84.14
2022-11-08T10:53:25.668Z,85.44
2022-11-08T10:56:28.532Z,87.79
2022-11-08T10:59:32.443Z,79.25
2022-11-08T11:02:36.223Z,77.83
2022-11-08T11:05:44.074Z,80.51
2022-11-08T11:08:54.886Z,72.80
2022-11-08T11:12:02.474Z,70.83
2022-11-08T11:15:05.621Z,72.44
2022-11-08T11:18:24.804Z,69.47
2022-11-08T11:21:36.272Z,75.34
2022-11-08T11:24:50.326Z,77.39
2022-11-08T11:27:57.675Z,76.31
2022-11-08T11:31:03.446Z,75.80
2022-11-08T11:34:18.663Z,72.94
2022-11-08T11:37:40.743Z,69.30
2022-11-08T11:40:48.582Z,75.67
2022-11-08T11:44:09.315Z,71.64
2022-11-08T11:47:39.285Z,68.79
2022-11-08T11:50:46.885Z,71.61
2022-11-08T11:53:49.749Z,74.81
2022-11-08T11:57:06.264Z,72.65
2022-11-08T12:00:13.093Z,74.03
2022-11-08T12:03:29.317Z,75.99
2022-11-08T12:07:05.350Z,76.10
2022-11-08T12:10:31.122Z,70.83
2022-11-08T12:13:51.512Z,71.91
2022-11-08T12:17:17.255Z,72.25
2022-11-08T12:20:36.923Z,73.95
2022-11-08T12:24:01.532Z,79.12
2022-11-08T12:27:37.139Z,81.54
2022-11-08T12:30:58.915Z,84.35
2022-11-08T12:34:28.541Z,84.58
2022-11-08T12:37:54.860Z,86.28
2022-11-08T12:41:12.588Z,85.61
2022-11-08T12:44:48.760Z,84.83
2022-11-08T12:48:11.633Z,87.13
2022-11-08T12:51:15.248Z,89.42
2022-11-08T12:54:26.758Z,86.40
2022-11-08T12:57:32.247Z,87.16
2022-11-08T13:00:36.264Z,93.60
2022-11-08T13:03:42.913Z,90.88
2022-11-08T13:06:56.669Z,95.99
2022-11-08T13:10:17.004Z,95.20
2022-11-08T13:13:37.272Z,95.01
2022-11-08T13:16:43.986Z,98.65
2022-11-08T13:19:53.521Z,96.96
2022-11-08T13:22:59.045Z,96.70
2022-11-08T13:26:20.245Z,99.89
2022-11-08T13:29:29.567Z,99.61
2022-11-08T13:32:55.432Z,100.00
2022-11-08T13:36:26.213Z,100.00
2022-11-08T13:39:40.872Z,100.00
2022-11-08T13:42:50.122Z,100.00
2022-11-08T13:45:54.304Z,100.00
2022-11-08T13:48:58.081Z,100.00
2022-11-08T13:52:43.580Z,100.00
2022-11-08T13:56:16.968Z,100.00
2022-11-08T13:59:31.948Z,100.00
2022-11-08T14:02:35.206Z,100.00
2022-11-08T14:05:46.537Z,100.00
2022-11-08T14:09:11.157Z,100.00
2022-11-08T14:12:37.608Z,100.00
2022-11-08T14:16:01.124Z,100.00
2022-11-08T14:19:22.396Z,100.00
2022-11-08T14:22:28.025Z,100.00
2022-11-08T14:25:35.397Z,100.00
2022-11-08T14:28:40.441Z,100.00
2022-11-08T14:31:43.425Z,100.00
2022-11-08T14:34:46.108Z,100.00
2022-11-08T14:37:49.230Z,100.00
2022-11-08T14:40:58.729Z,100.00
2022-11-08T14:44:02.878Z,100.00
2022-11-08T14:47:05.685Z,100.00
2022-11-08T14:50:19.325Z,100.00
2022-11-08T14:53:27.841Z,100.00
2022-11-08T14:56:38.690Z,100.00
2022-11-08T14:59:41.912Z,100.00
2022-11-08T15:02:49.618Z,100.00
2022-11-08T15:06:12.599Z,100.00
2022-11-08T15:09:23.860Z,100.00
2022-11-08T15:12:26.426Z,100.00
2022-11-08T15:15:33.157Z,100.00
2022-11-08T15:18:40.958Z,100.00
2022-11-08T15:21:49.213Z,100.00
2022-11-08T15:25:17.153Z,100.00
2022-11-08T15:28:25.956Z,100.00
2022-11-08T15:31:31.903Z,100.00
2022-11-08T15:34:40.611Z,100.00
2022-11-08T15:37:46.343Z,100.00
2022-11-08T15:40:51.540Z,100.00
2022-11-08T15:44:16.373Z,100.00
2022-11-08T15:47:44.201Z,100.00
2022-11-08T15:50:47.158Z,100.00
2022-11-08T15:53:51.941Z,100.00
2022-11-08T15:56:56.413Z,100.00
2022-11-08T16:00:00.236Z,100.00
2022-11-08T16:03:03.026Z,100.00
2022-11-08T16:06:06.535Z,100.00
2022-11-08T16:09:09.140Z,100.00
2022-11-08T16:12:15.456Z,100.00
2022-11-08T16:15:21.926Z,100.00
2022-11-08T16:18:25.005Z,100.00
2022-11-08T16:21:30.990Z,100.00
2022-11-08T16:24:34.197Z,100.00
2022-11-08T16:27:37.534Z,100.00
2022-11-08T16:30:46.179Z,100.00
2022-11-08T16:33:54.133Z,100.00
2022-11-08T16:36:58.661Z,100.00
2022-11-08T16:40:01.242Z,100.00
2022-11-08T16:43:10.295Z,100.00
2022-11-08T16:46:21.113Z,100.00
2022-11-08T16:49:27.445Z,100.00
2022-11-08T16:52:30.382Z,100.00
2022-11-08T16:55:35.587Z,100.00
2022-11-08T16:58:38.240Z,100.00
2022-11-08T17:01:41.521Z,100.00
2022-11-08T17:04:44.278Z,100.00
2022-11-08T17:07:51.180Z,100.00
2022-11-08T17:10:57.254Z,100.00
2022-11-08T17:14:00.401Z,100.00
2022-11-08T17:17:03.342Z,100.00
2022-11-08T17:20:08.793Z,100.00
2022-11-08T17:23:12.008Z,100.00
2022-11-08T17:26:15.066Z,100.00
2022-11-08T17:29:17.533Z,100.00
2022-11-08T17:32:20.675Z,100.00
2022-11-08T17:35:25.169Z,100.00
2022-11-08T17:38:28.465Z,100.00
2022-11-08T17:41:31.228Z,100.00
2022-11-08T17:44:34.149Z,100.00
2022-11-08T17:47:37.731Z,100.00
2022-11-08T17:50:40.747Z,100.00
2022-11-08T17:53:44.461Z,100.00
2022-11-08T17:56:47.476Z,100.00
2022-11-08T17:59:50.504Z,100.00
2022-11-08T18:02:53.281Z,100.00
2022-11-08T18:05:57.206Z,100.00
2022-11-08T18:09:02.049Z,100.00
2022-11-08T18:12:05.432Z,100.00
2022-11-08T18:15:09.595Z,100.00
2022-11-08T18:18:14.024Z,100.00
2022-11-08T18:21:18.286Z,100.00
2022-11-08T18:24:21.753Z,100.00
2022-11-08T18:27:24.553Z,100.00
2022-11-08T18:30:27.862Z,100.00
2022-11-08T18:33:30.492Z,100.00
2022-11-08T18:36:33.502Z,100.00
2022-11-08T18:39:36.403Z,100.00
2022-11-08T18:42:39.994Z,100.00
2022-11-08T18:45:43.061Z,100.00
2022-11-08T18:48:46.685Z,100.00
2022-11-08T18:51:52.173Z,100.00
2022-11-08T18:54:56.143Z,100.00
2022-11-08T18:57:58.962Z,100.00
2022-11-08T19:01:03.374Z,100.00
2022-11-08T19:04:06.082Z,100.00
2022-11-08T19:07:10.566Z,100.00
2022-11-08T19:10:14.819Z,100.00
2022-11-08T19:13:21.311Z,100.00
2022-11-08T19:16:26.763Z,100.00
2022-11-08T19:19:32.734Z,100.00
2022-11-08T19:22:36.573Z,100.00
2022-11-08T19:25:41.698Z,100.00
2022-11-08T19:28:46.514Z,100.00
2022-11-08T19:31:49.424Z,100.00
2022-11-08T19:34:52.592Z,100.00
2022-11-08T19:37:55.510Z,100.00
2022-11-08T19:41:01.776Z,100.00
2022-11-08T19:44:06.695Z,100.00
2022-11-08T19:47:09.097Z,100.00
2022-11-08T19:50:12.610Z,100.00
2022-11-08T19:53:16.275Z,100.00
2022-11-08T19:56:29.180Z,100.00
2022-11-08T19:59:40.370Z,100.00
2022-11-08T20:02:43.426Z,100.00
2022-11-08T20:05:52.342Z,100.00
2022-11-08T20:08:55.203Z,100.00
2022-11-08T20:11:58.467Z,100.00
2022-11-08T20:15:03.517Z,100.00
2022-11-08T20:18:06.590Z,100.00
2022-11-08T20:21:11.016Z,100.00
2022-11-08T20:24:14.726Z,100.00
2022-11-08T20:27:19.323Z,100.00
2022-11-08T20:30:22.078Z,100.00
2022-11-08T20:33:24.633Z,100.00
2022-11-08T20:36:31.782Z,100.00
2022-11-08T20:39:37.620Z,100.00
2022-11-08T20:42:40.835Z,100.00
2022-11-08T20:45:43.792Z,100.00
2022-11-08T20:48:51.111Z,100.00
2022-11-08T20:51:54.301Z,100.00
2022-11-08T20:54:57.065Z,100.00
2022-11-08T20:57:59.837Z,100.00
2022-11-08T21:01:06.690Z,100.00
2022-11-08T21:04:09.070Z,100.00
2022-11-08T21:10:42.672Z,100.00
2022-11-08T21:13:46.959Z,100.00
2022-11-08T21:17:20.231Z,100.00
2022-11-08T21:20:13.579Z,100.00
2022-11-08T21:23:17.266Z,100.00
2022-11-08T21:26:20.675Z,100.00
2022-11-08T21:29:23.125Z,100.00
2022-11-08T21:32:26.088Z,100.00
2022-11-08T21:35:28.957Z,100.00
2022-11-08T21:38:33.946Z,100.00
2022-11-08T21:41:36.542Z,100.00
2022-11-08T21:44:39.357Z,100.00
2022-11-08T21:47:42.013Z,100.00
2022-11-08T21:50:45.009Z,100.00
2022-11-08T21:53:54.758Z,100.00
2022-11-08T21:56:58.215Z,100.00
2022-11-08T22:00:00.869Z,100.00
2022-11-08T22:03:03.707Z,100.00
2022-11-08T22:06:06.902Z,100.00
2022-11-08T22:09:09.553Z,100.00
2022-11-08T22:12:12.544Z,100.00
2022-11-08T22:15:15.133Z,100.00
2022-11-08T22:18:26.500Z,100.00
2022-11-08T22:21:43.407Z,100.00
2022-11-08T22:24:48.476Z,100.00
2022-11-08T22:27:51.089Z,100.00
2022-11-08T22:30:55.265Z,100.00
2022-11-08T22:33:59.641Z,100.00
2022-11-08T22:37:02.909Z,100.00
2022-11-08T22:40:06.971Z,100.00
2022-11-08T22:43:10.092Z,100.00
2022-11-08T22:46:13.576Z,100.00
2022-11-08T22:49:16.647Z,100.00
2022-11-08T22:52:19.228Z,100.00
2022-11-08T22:55:22.137Z,100.00
2022-11-08T22:58:24.694Z,100.00
2022-11-08T23:01:27.600Z,100.00
2022-11-08T23:04:30.063Z,100.00
2022-11-08T23:07:32.821Z,100.00
2022-11-08T23:10:58.165Z,100.00
2022-11-08T23:14:35.402Z,100.00
2022-11-08T23:17:39.208Z,100.00
2022-11-08T23:21:00.850Z,100.00
2022-11-08T23:24:21.659Z,100.00
2022-11-08T23:27:43.729Z,100.00
2022-11-08T23:31:04.516Z,100.00
2022-11-08T23:34:07.152Z,100.00
2022-11-08T23:37:09.586Z,100.00
2022-11-08T23:40:33.541Z,100.00
2022-11-08T23:43:54.985Z,100.00
2022-11-08T23:46:59.898Z,100.00
2022-11-08T23:50:02.447Z,100.00
2022-11-08T23:53:06.643Z,100.00
2022-11-08T23:56:09.084Z,100.00
2022-11-08T23:59:13.174Z,100.00
